sensor_id;sensor_type;location;lat;lon;timestamp;temperature;humidity
37518;DHT22;23366;52.498;13.446;2023-04-03T00:01:10;2.00;99.90
37518;DHT22;23366;52.498;13.446;2023-04-03T00:03:36;2.00;99.90
37518;DHT22;23366;52.498;13.446;2023-04-03T00:06:02;2.00;99.90
37518;DHT22;23366;52.498;13.446;2023-04-03T00:08:28;2.00;99.90
37518;DHT22;23366;52.498;13.446;2023-04-03T00:10:56;2.00;99.90
37518;DHT22;23366;52.498;13.446;2023-04-03T00:13:22;2.00;99.90
37518;DHT22;23366;52.498;13.446;2023-04-03T00:15:47;2.00;99.90
37518;DHT22;23366;52.498;13.446;2023-04-03T00:18:13;2.00;99.90
37518;DHT22;23366;52.498;13.446;2023-04-03T00:20:38;2.00;99.90
37518;DHT22;23366;52.498;13.446;2023-04-03T00:23:04;2.00;99.90
37518;DHT22;23366;52.498;13.446;2023-04-03T00:25:30;2.00;99.90
37518;DHT22;23366;52.498;13.446;2023-04-03T00:27:55;2.00;99.90
37518;DHT22;23366;52.498;13.446;2023-04-03T00:30:23;2.00;99.90
37518;DHT22;23366;52.498;13.446;2023-04-03T00:32:49;2.00;99.90
37518;DHT22;23366;52.498;13.446;2023-04-03T00:35:15;2.00;99.90
37518;DHT22;23366;52.498;13.446;2023-04-03T00:37:42;1.90;99.90
37518;DHT22;23366;52.498;13.446;2023-04-03T00:40:09;1.90;99.90
37518;DHT22;23366;52.498;13.446;2023-04-03T00:42:36;2.00;99.90
37518;DHT22;23366;52.498;13.446;2023-04-03T00:47:29;1.90;99.90
37518;DHT22;23366;52.498;13.446;2023-04-03T00:49:56;1.90;99.90
37518;DHT22;23366;52.498;13.446;2023-04-03T00:52:28;1.90;99.90
37518;DHT22;23366;52.498;13.446;2023-04-03T00:54:57;1.90;99.90
37518;DHT22;23366;52.498;13.446;2023-04-03T00:57:25;1.90;99.90
37518;DHT22;23366;52.498;13.446;2023-04-03T00:59:55;1.90;99.90
37518;DHT22;23366;52.498;13.446;2023-04-03T01:02:23;1.90;99.90
37518;DHT22;23366;52.498;13.446;2023-04-03T01:04:48;1.90;99.90
37518;DHT22;23366;52.498;13.446;2023-04-03T01:07:18;1.90;99.90
37518;DHT22;23366;52.498;13.446;2023-04-03T01:09:48;1.90;99.90
37518;DHT22;23366;52.498;13.446;2023-04-03T01:12:20;1.90;99.90
37518;DHT22;23366;52.498;13.446;2023-04-03T01:14:55;1.90;99.90
37518;DHT22;23366;52.498;13.446;2023-04-03T01:17:35;1.90;99.90
37518;DHT22;23366;52.498;13.446;2023-04-03T01:25:46;1.80;99.90
37518;DHT22;23366;52.498;13.446;2023-04-03T01:28:28;1.80;99.90
37518;DHT22;23366;52.498;13.446;2023-04-03T01:33:29;1.80;99.90
37518;DHT22;23366;52.498;13.446;2023-04-03T01:35:55;1.80;99.90
37518;DHT22;23366;52.498;13.446;2023-04-03T01:38:21;1.80;99.90
37518;DHT22;23366;52.498;13.446;2023-04-03T01:40:46;1.80;99.90
37518;DHT22;23366;52.498;13.446;2023-04-03T01:43:12;1.80;99.90
37518;DHT22;23366;52.498;13.446;2023-04-03T01:45:37;1.80;99.90
37518;DHT22;23366;52.498;13.446;2023-04-03T01:48:03;1.80;99.90
37518;DHT22;23366;52.498;13.446;2023-04-03T01:50:29;1.80;99.90
37518;DHT22;23366;52.498;13.446;2023-04-03T01:52:54;1.80;99.90
37518;DHT22;23366;52.498;13.446;2023-04-03T01:55:20;1.80;99.90
37518;DHT22;23366;52.498;13.446;2023-04-03T01:57:45;1.70;99.90
37518;DHT22;23366;52.498;13.446;2023-04-03T02:00:11;1.80;99.90
37518;DHT22;23366;52.498;13.446;2023-04-03T02:02:37;1.70;99.90
37518;DHT22;23366;52.498;13.446;2023-04-03T02:05:03;1.70;99.90
37518;DHT22;23366;52.498;13.446;2023-04-03T02:07:28;1.70;99.90
37518;DHT22;23366;52.498;13.446;2023-04-03T02:09:54;1.70;99.90
37518;DHT22;23366;52.498;13.446;2023-04-03T02:12:19;1.70;99.90
37518;DHT22;23366;52.498;13.446;2023-04-03T02:14:45;1.60;99.90
37518;DHT22;23366;52.498;13.446;2023-04-03T02:17:10;1.60;99.90
37518;DHT22;23366;52.498;13.446;2023-04-03T02:19:36;1.60;99.90
37518;DHT22;23366;52.498;13.446;2023-04-03T02:22:03;1.60;99.90
37518;DHT22;23366;52.498;13.446;2023-04-03T02:24:29;1.60;99.90
37518;DHT22;23366;52.498;13.446;2023-04-03T02:26:54;1.50;99.90
37518;DHT22;23366;52.498;13.446;2023-04-03T02:29:20;1.50;99.90
37518;DHT22;23366;52.498;13.446;2023-04-03T02:31:46;1.50;99.90
37518;DHT22;23366;52.498;13.446;2023-04-03T02:34:11;1.50;99.90
37518;DHT22;23366;52.498;13.446;2023-04-03T02:36:37;1.40;99.90
37518;DHT22;23366;52.498;13.446;2023-04-03T02:39:03;1.50;99.90
37518;DHT22;23366;52.498;13.446;2023-04-03T02:41:29;1.50;99.90
37518;DHT22;23366;52.498;13.446;2023-04-03T02:44:01;1.50;99.90
37518;DHT22;23366;52.498;13.446;2023-04-03T02:46:26;1.40;99.90
37518;DHT22;23366;52.498;13.446;2023-04-03T02:48:52;1.50;99.90
37518;DHT22;23366;52.498;13.446;2023-04-03T02:51:17;1.40;99.90
37518;DHT22;23366;52.498;13.446;2023-04-03T02:53:43;1.40;99.90
37518;DHT22;23366;52.498;13.446;2023-04-03T02:56:08;1.40;99.90
37518;DHT22;23366;52.498;13.446;2023-04-03T02:58:34;1.50;99.90
37518;DHT22;23366;52.498;13.446;2023-04-03T03:00:59;1.50;99.90
37518;DHT22;23366;52.498;13.446;2023-04-03T03:03:25;1.50;99.90
37518;DHT22;23366;52.498;13.446;2023-04-03T03:06:04;1.40;99.90
37518;DHT22;23366;52.498;13.446;2023-04-03T03:08:30;1.40;99.90
37518;DHT22;23366;52.498;13.446;2023-04-03T03:10:55;1.40;99.90
37518;DHT22;23366;52.498;13.446;2023-04-03T03:13:21;1.40;99.90
37518;DHT22;23366;52.498;13.446;2023-04-03T03:15:46;1.40;99.90
37518;DHT22;23366;52.498;13.446;2023-04-03T03:18:12;1.40;99.90
37518;DHT22;23366;52.498;13.446;2023-04-03T03:20:37;1.40;99.90
37518;DHT22;23366;52.498;13.446;2023-04-03T03:23:03;1.40;99.90
37518;DHT22;23366;52.498;13.446;2023-04-03T03:25:28;1.40;99.90
37518;DHT22;23366;52.498;13.446;2023-04-03T03:27:54;1.40;99.90
37518;DHT22;23366;52.498;13.446;2023-04-03T03:30:20;1.40;99.90
37518;DHT22;23366;52.498;13.446;2023-04-03T03:32:46;1.40;99.90
37518;DHT22;23366;52.498;13.446;2023-04-03T03:35:11;1.40;99.90
37518;DHT22;23366;52.498;13.446;2023-04-03T03:37:37;1.40;99.90
37518;DHT22;23366;52.498;13.446;2023-04-03T03:40:03;1.40;99.90
37518;DHT22;23366;52.498;13.446;2023-04-03T03:42:28;1.40;99.90
37518;DHT22;23366;52.498;13.446;2023-04-03T03:44:54;1.40;99.90
37518;DHT22;23366;52.498;13.446;2023-04-03T03:47:20;1.30;99.90
37518;DHT22;23366;52.498;13.446;2023-04-03T03:49:45;1.30;99.90
37518;DHT22;23366;52.498;13.446;2023-04-03T03:52:11;1.30;99.90
37518;DHT22;23366;52.498;13.446;2023-04-03T03:54:37;1.30;99.90
37518;DHT22;23366;52.498;13.446;2023-04-03T03:57:03;1.30;99.90
37518;DHT22;23366;52.498;13.446;2023-04-03T03:59:28;1.30;99.90
37518;DHT22;23366;52.498;13.446;2023-04-03T04:01:54;1.30;99.90
37518;DHT22;23366;52.498;13.446;2023-04-03T04:04:20;1.30;99.90
37518;DHT22;23366;52.498;13.446;2023-04-03T04:06:45;1.30;99.90
37518;DHT22;23366;52.498;13.446;2023-04-03T04:09:11;1.20;99.90
37518;DHT22;23366;52.498;13.446;2023-04-03T04:11:36;1.20;99.90
37518;DHT22;23366;52.498;13.446;2023-04-03T04:14:02;1.20;99.90
37518;DHT22;23366;52.498;13.446;2023-04-03T04:16:27;1.20;99.90
37518;DHT22;23366;52.498;13.446;2023-04-03T04:18:53;1.20;99.90
37518;DHT22;23366;52.498;13.446;2023-04-03T04:21:19;1.20;99.90
37518;DHT22;23366;52.498;13.446;2023-04-03T04:23:44;1.20;99.90
37518;DHT22;23366;52.498;13.446;2023-04-03T04:26:10;1.20;99.90
37518;DHT22;23366;52.498;13.446;2023-04-03T04:28:35;1.10;99.90
37518;DHT22;23366;52.498;13.446;2023-04-03T04:31:01;1.10;99.90
37518;DHT22;23366;52.498;13.446;2023-04-03T04:33:26;1.20;99.90
37518;DHT22;23366;52.498;13.446;2023-04-03T04:35:52;1.20;99.90
37518;DHT22;23366;52.498;13.446;2023-04-03T04:38:17;1.10;99.90
37518;DHT22;23366;52.498;13.446;2023-04-03T04:40:43;1.10;99.90
37518;DHT22;23366;52.498;13.446;2023-04-03T04:43:08;1.10;99.90
37518;DHT22;23366;52.498;13.446;2023-04-03T04:45:36;1.20;99.90
37518;DHT22;23366;52.498;13.446;2023-04-03T04:48:01;1.10;99.90
37518;DHT22;23366;52.498;13.446;2023-04-03T04:50:27;1.20;99.90
37518;DHT22;23366;52.498;13.446;2023-04-03T04:52:52;1.20;99.90
37518;DHT22;23366;52.498;13.446;2023-04-03T04:55:18;1.20;99.90
37518;DHT22;23366;52.498;13.446;2023-04-03T04:57:43;1.30;99.90
37518;DHT22;23366;52.498;13.446;2023-04-03T05:00:09;1.30;99.90
37518;DHT22;23366;52.498;13.446;2023-04-03T05:02:35;1.30;99.90
37518;DHT22;23366;52.498;13.446;2023-04-03T05:05:00;1.40;99.90
37518;DHT22;23366;52.498;13.446;2023-04-03T05:07:26;1.50;99.90
37518;DHT22;23366;52.498;13.446;2023-04-03T05:09:51;1.50;99.90
37518;DHT22;23366;52.498;13.446;2023-04-03T05:12:17;1.50;99.90
37518;DHT22;23366;52.498;13.446;2023-04-03T05:14:43;1.60;99.90
37518;DHT22;23366;52.498;13.446;2023-04-03T05:17:08;1.70;99.90
37518;DHT22;23366;52.498;13.446;2023-04-03T05:19:34;1.80;99.90
37518;DHT22;23366;52.498;13.446;2023-04-03T05:21:59;1.90;99.90
37518;DHT22;23366;52.498;13.446;2023-04-03T05:24:25;2.10;99.90
37518;DHT22;23366;52.498;13.446;2023-04-03T05:26:51;3.00;99.90
37518;DHT22;23366;52.498;13.446;2023-04-03T05:29:17;4.50;99.90
37518;DHT22;23366;52.498;13.446;2023-04-03T05:31:42;6.20;99.90
37518;DHT22;23366;52.498;13.446;2023-04-03T05:34:08;7.80;99.90
37518;DHT22;23366;52.498;13.446;2023-04-03T05:36:33;9.20;98.80
37518;DHT22;23366;52.498;13.446;2023-04-03T05:38:59;10.50;94.40
37518;DHT22;23366;52.498;13.446;2023-04-03T05:41:24;11.50;91.30
37518;DHT22;23366;52.498;13.446;2023-04-03T05:43:50;12.10;89.20
37518;DHT22;23366;52.498;13.446;2023-04-03T05:46:17;13.10;85.60
37518;DHT22;23366;52.498;13.446;2023-04-03T05:48:44;13.70;79.80
37518;DHT22;23366;52.498;13.446;2023-04-03T05:51:24;14.20;76.90
37518;DHT22;23366;52.498;13.446;2023-04-03T05:54:10;14.70;74.50
37518;DHT22;23366;52.498;13.446;2023-04-03T05:56:37;14.60;72.60
37518;DHT22;23366;52.498;13.446;2023-04-03T05:59:03;15.20;71.50
37518;DHT22;23366;52.498;13.446;2023-04-03T06:01:28;15.70;69.00
37518;DHT22;23366;52.498;13.446;2023-04-03T06:03:54;15.40;67.60
37518;DHT22;23366;52.498;13.446;2023-04-03T06:06:19;15.50;67.10
37518;DHT22;23366;52.498;13.446;2023-04-03T06:08:47;15.90;65.60
37518;DHT22;23366;52.498;13.446;2023-04-03T06:11:12;15.80;65.60
37518;DHT22;23366;52.498;13.446;2023-04-03T06:13:38;16.20;63.60
37518;DHT22;23366;52.498;13.446;2023-04-03T06:16:07;15.70;63.60
37518;DHT22;23366;52.498;13.446;2023-04-03T06:18:34;14.70;64.00
37518;DHT22;23366;52.498;13.446;2023-04-03T06:20:59;14.90;65.50
37518;DHT22;23366;52.498;13.446;2023-04-03T06:23:26;14.90;64.40
37518;DHT22;23366;52.498;13.446;2023-04-03T06:25:51;15.10;65.50
37518;DHT22;23366;52.498;13.446;2023-04-03T06:28:17;15.30;63.50
37518;DHT22;23366;52.498;13.446;2023-04-03T06:30:44;15.90;61.80
37518;DHT22;23366;52.498;13.446;2023-04-03T06:33:10;15.60;60.60
37518;DHT22;23366;52.498;13.446;2023-04-03T06:35:36;15.40;62.70
37518;DHT22;23366;52.498;13.446;2023-04-03T06:38:03;15.70;60.10
37518;DHT22;23366;52.498;13.446;2023-04-03T06:40:34;15.40;61.40
37518;DHT22;23366;52.498;13.446;2023-04-03T06:43:00;15.90;60.90
37518;DHT22;23366;52.498;13.446;2023-04-03T06:45:26;16.60;60.00
37518;DHT22;23366;52.498;13.446;2023-04-03T06:47:53;16.80;58.60
37518;DHT22;23366;52.498;13.446;2023-04-03T06:50:19;16.90;58.20
37518;DHT22;23366;52.498;13.446;2023-04-03T06:52:44;16.20;57.60
37518;DHT22;23366;52.498;13.446;2023-04-03T06:55:10;15.50;58.50
37518;DHT22;23366;52.498;13.446;2023-04-03T06:57:35;14.50;59.20
37518;DHT22;23366;52.498;13.446;2023-04-03T07:00:03;14.00;60.10
37518;DHT22;23366;52.498;13.446;2023-04-03T07:02:33;14.50;60.00
37518;DHT22;23366;52.498;13.446;2023-04-03T07:04:59;13.50;60.60
37518;DHT22;23366;52.498;13.446;2023-04-03T07:07:24;13.90;60.10
37518;DHT22;23366;52.498;13.446;2023-04-03T07:09:50;14.00;59.50
37518;DHT22;23366;52.498;13.446;2023-04-03T07:12:18;14.10;59.30
37518;DHT22;23366;52.498;13.446;2023-04-03T07:14:44;14.20;59.60
37518;DHT22;23366;52.498;13.446;2023-04-03T07:17:09;13.50;59.70
37518;DHT22;23366;52.498;13.446;2023-04-03T07:19:35;13.50;59.10
37518;DHT22;23366;52.498;13.446;2023-04-03T07:22:01;13.90;59.70
37518;DHT22;23366;52.498;13.446;2023-04-03T07:24:26;14.70;57.80
37518;DHT22;23366;52.498;13.446;2023-04-03T07:26:54;14.50;57.90
37518;DHT22;23366;52.498;13.446;2023-04-03T07:29:20;14.20;57.30
37518;DHT22;23366;52.498;13.446;2023-04-03T07:31:47;13.60;58.20
37518;DHT22;23366;52.498;13.446;2023-04-03T07:34:13;12.90;60.10
37518;DHT22;23366;52.498;13.446;2023-04-03T07:36:38;12.80;60.50
37518;DHT22;23366;52.498;13.446;2023-04-03T07:39:04;13.10;59.10
37518;DHT22;23366;52.498;13.446;2023-04-03T07:41:30;14.00;59.50
37518;DHT22;23366;52.498;13.446;2023-04-03T07:43:55;14.80;57.10
37518;DHT22;23366;52.498;13.446;2023-04-03T07:46:22;15.10;56.60
37518;DHT22;23366;52.498;13.446;2023-04-03T07:48:51;16.50;54.70
37518;DHT22;23366;52.498;13.446;2023-04-03T07:51:17;15.90;55.00
37518;DHT22;23366;52.498;13.446;2023-04-03T07:53:42;15.20;54.50
37518;DHT22;23366;52.498;13.446;2023-04-03T07:56:08;16.00;52.80
37518;DHT22;23366;52.498;13.446;2023-04-03T07:58:38;15.10;53.10
37518;DHT22;23366;52.498;13.446;2023-04-03T08:01:04;14.10;55.10
37518;DHT22;23366;52.498;13.446;2023-04-03T08:03:29;14.10;55.90
37518;DHT22;23366;52.498;13.446;2023-04-03T08:06:02;12.20;58.00
37518;DHT22;23366;52.498;13.446;2023-04-03T08:08:28;10.90;61.80
37518;DHT22;23366;52.498;13.446;2023-04-03T08:10:55;9.90;63.20
37518;DHT22;23366;52.498;13.446;2023-04-03T08:13:23;9.00;66.50
37518;DHT22;23366;52.498;13.446;2023-04-03T08:15:49;8.20;67.70
37518;DHT22;23366;52.498;13.446;2023-04-03T08:18:15;7.60;70.30
37518;DHT22;23366;52.498;13.446;2023-04-03T08:20:42;7.10;72.10
37518;DHT22;23366;52.498;13.446;2023-04-03T08:23:08;7.00;73.80
37518;DHT22;23366;52.498;13.446;2023-04-03T08:25:41;7.10;74.30
37518;DHT22;23366;52.498;13.446;2023-04-03T08:28:07;7.20;75.40
37518;DHT22;23366;52.498;13.446;2023-04-03T08:30:33;7.20;73.90
37518;DHT22;23366;52.498;13.446;2023-04-03T08:33:03;6.80;73.10
37518;DHT22;23366;52.498;13.446;2023-04-03T08:35:28;6.70;73.90
37518;DHT22;23366;52.498;13.446;2023-04-03T08:37:54;6.70;74.40
37518;DHT22;23366;52.498;13.446;2023-04-03T08:40:25;6.40;74.60
37518;DHT22;23366;52.498;13.446;2023-04-03T08:46:03;5.60;75.50
37518;DHT22;23366;52.498;13.446;2023-04-03T08:48:36;5.50;76.10
37518;DHT22;23366;52.498;13.446;2023-04-03T08:51:13;5.40;74.40
37518;DHT22;23366;52.498;13.446;2023-04-03T08:53:44;5.40;74.90
37518;DHT22;23366;52.498;13.446;2023-04-03T08:56:12;5.50;75.80
37518;DHT22;23366;52.498;13.446;2023-04-03T08:58:55;5.60;76.10
37518;DHT22;23366;52.498;13.446;2023-04-03T09:01:45;5.60;76.40
37518;DHT22;23366;52.498;13.446;2023-04-03T09:04:16;5.80;76.00
37518;DHT22;23366;52.498;13.446;2023-04-03T09:06:45;5.90;75.40
37518;DHT22;23366;52.498;13.446;2023-04-03T09:09:30;6.10;75.70
37518;DHT22;23366;52.498;13.446;2023-04-03T09:12:12;6.40;76.60
37518;DHT22;23366;52.498;13.446;2023-04-03T09:22:45;6.10;74.50
37518;DHT22;23366;52.498;13.446;2023-04-03T09:25:21;6.50;73.10
37518;DHT22;23366;52.498;13.446;2023-04-03T09:27:48;6.60;70.20
37518;DHT22;23366;52.498;13.446;2023-04-03T09:30:20;6.80;69.60
37518;DHT22;23366;52.498;13.446;2023-04-03T09:32:48;6.50;70.60
37518;DHT22;23366;52.498;13.446;2023-04-03T09:37:48;6.10;71.00
37518;DHT22;23366;52.498;13.446;2023-04-03T09:40:29;6.00;71.20
37518;DHT22;23366;52.498;13.446;2023-04-03T09:42:57;5.90;72.50
37518;DHT22;23366;52.498;13.446;2023-04-03T09:45:32;6.20;72.10
37518;DHT22;23366;52.498;13.446;2023-04-03T09:50:35;6.70;70.10
37518;DHT22;23366;52.498;13.446;2023-04-03T09:53:24;6.60;71.50
37518;DHT22;23366;52.498;13.446;2023-04-03T09:55:50;6.80;71.20
37518;DHT22;23366;52.498;13.446;2023-04-03T09:58:33;6.60;71.80
37518;DHT22;23366;52.498;13.446;2023-04-03T10:01:03;6.60;71.50
37518;DHT22;23366;52.498;13.446;2023-04-03T10:03:31;6.40;72.00
37518;DHT22;23366;52.498;13.446;2023-04-03T10:05:58;6.00;73.80
37518;DHT22;23366;52.498;13.446;2023-04-03T10:08:32;6.30;74.10
37518;DHT22;23366;52.498;13.446;2023-04-03T10:11:16;6.50;73.70
37518;DHT22;23366;52.498;13.446;2023-04-03T10:13:53;6.90;72.60
37518;DHT22;23366;52.498;13.446;2023-04-03T10:16:24;6.70;72.30
37518;DHT22;23366;52.498;13.446;2023-04-03T10:19:05;6.80;72.40
37518;DHT22;23366;52.498;13.446;2023-04-03T10:21:50;6.70;72.40
37518;DHT22;23366;52.498;13.446;2023-04-03T10:24:26;6.50;72.90
37518;DHT22;23366;52.498;13.446;2023-04-03T10:29:45;6.50;73.90
37518;DHT22;23366;52.498;13.446;2023-04-03T10:32:33;6.70;73.00
37518;DHT22;23366;52.498;13.446;2023-04-03T10:35:20;6.70;73.40
37518;DHT22;23366;52.498;13.446;2023-04-03T10:41:32;6.80;73.50
37518;DHT22;23366;52.498;13.446;2023-04-03T10:46:58;6.80;73.20
37518;DHT22;23366;52.498;13.446;2023-04-03T10:49:56;6.90;72.50
37518;DHT22;23366;52.498;13.446;2023-04-03T10:52:35;6.70;72.40
37518;DHT22;23366;52.498;13.446;2023-04-03T10:57:40;6.50;73.30
37518;DHT22;23366;52.498;13.446;2023-04-03T11:00:18;6.80;73.20
37518;DHT22;23366;52.498;13.446;2023-04-03T11:02:57;6.90;73.20
37518;DHT22;23366;52.498;13.446;2023-04-03T11:05:44;6.90;72.80
37518;DHT22;23366;52.498;13.446;2023-04-03T11:08:21;7.00;72.50
37518;DHT22;23366;52.498;13.446;2023-04-03T11:10:50;6.60;71.90
37518;DHT22;23366;52.498;13.446;2023-04-03T11:13:33;6.30;74.70
37518;DHT22;23366;52.498;13.446;2023-04-03T11:15:59;6.20;74.80
37518;DHT22;23366;52.498;13.446;2023-04-03T11:21:08;6.10;74.80
37518;DHT22;23366;52.498;13.446;2023-04-03T11:23:39;6.10;75.30
37518;DHT22;23366;52.498;13.446;2023-04-03T11:26:14;6.30;75.40
37518;DHT22;23366;52.498;13.446;2023-04-03T11:28:41;6.70;74.20
37518;DHT22;23366;52.498;13.446;2023-04-03T11:36:45;7.00;73.60
37518;DHT22;23366;52.498;13.446;2023-04-03T11:39:33;7.20;73.20
37518;DHT22;23366;52.498;13.446;2023-04-03T11:42:28;7.20;74.80
37518;DHT22;23366;52.498;13.446;2023-04-03T11:45:17;6.90;75.00
37518;DHT22;23366;52.498;13.446;2023-04-03T11:48:05;7.10;76.30
37518;DHT22;23366;52.498;13.446;2023-04-03T12:24:28;7.60;75.00
37518;DHT22;23366;52.498;13.446;2023-04-03T12:34:48;8.00;73.70
37518;DHT22;23366;52.498;13.446;2023-04-03T12:37:40;8.00;73.20
37518;DHT22;23366;52.498;13.446;2023-04-03T12:40:34;7.90;72.50
37518;DHT22;23366;52.498;13.446;2023-04-03T12:46:14;8.10;74.00
37518;DHT22;23366;52.498;13.446;2023-04-03T12:53:51;7.80;72.10
37518;DHT22;23366;52.498;13.446;2023-04-03T12:56:23;7.70;72.50
37518;DHT22;23366;52.498;13.446;2023-04-03T12:58:50;7.50;72.70
37518;DHT22;23366;52.498;13.446;2023-04-03T13:01:18;7.60;73.50
37518;DHT22;23366;52.498;13.446;2023-04-03T13:03:50;7.60;72.40
37518;DHT22;23366;52.498;13.446;2023-04-03T13:06:23;7.50;72.40
37518;DHT22;23366;52.498;13.446;2023-04-03T13:11:16;7.40;72.00
37518;DHT22;23366;52.498;13.446;2023-04-03T13:14:01;7.50;73.30
37518;DHT22;23366;52.498;13.446;2023-04-03T13:16:27;7.70;73.90
37518;DHT22;23366;52.498;13.446;2023-04-03T13:18:54;7.80;73.80
37518;DHT22;23366;52.498;13.446;2023-04-03T13:21:26;7.60;72.80
37518;DHT22;23366;52.498;13.446;2023-04-03T13:23:55;7.50;74.40
37518;DHT22;23366;52.498;13.446;2023-04-03T13:26:24;7.70;74.60
37518;DHT22;23366;52.498;13.446;2023-04-03T13:28:51;7.50;74.30
37518;DHT22;23366;52.498;13.446;2023-04-03T13:31:25;7.20;75.00
37518;DHT22;23366;52.498;13.446;2023-04-03T13:34:10;7.10;74.80
37518;DHT22;23366;52.498;13.446;2023-04-03T13:36:42;6.90;75.20
37518;DHT22;23366;52.498;13.446;2023-04-03T13:41:52;6.80;77.20
37518;DHT22;23366;52.498;13.446;2023-04-03T13:46:48;6.60;76.70
37518;DHT22;23366;52.498;13.446;2023-04-03T13:51:51;6.60;78.90
37518;DHT22;23366;52.498;13.446;2023-04-03T13:54:54;6.50;77.70
37518;DHT22;23366;52.498;13.446;2023-04-03T13:57:21;6.50;77.90
37518;DHT22;23366;52.498;13.446;2023-04-03T13:59:47;6.40;78.20
37518;DHT22;23366;52.498;13.446;2023-04-03T14:02:18;6.60;79.00
37518;DHT22;23366;52.498;13.446;2023-04-03T14:04:45;6.80;79.10
37518;DHT22;23366;52.498;13.446;2023-04-03T14:07:13;6.70;79.30
37518;DHT22;23366;52.498;13.446;2023-04-03T14:09:39;6.90;80.10
37518;DHT22;23366;52.498;13.446;2023-04-03T14:14:52;7.00;77.40
37518;DHT22;23366;52.498;13.446;2023-04-03T14:17:23;7.20;78.70
37518;DHT22;23366;52.498;13.446;2023-04-03T14:19:50;7.20;78.30
37518;DHT22;23366;52.498;13.446;2023-04-03T14:22:28;7.30;77.10
37518;DHT22;23366;52.498;13.446;2023-04-03T14:24:55;6.90;77.00
37518;DHT22;23366;52.498;13.446;2023-04-03T14:27:47;6.60;77.70
37518;DHT22;23366;52.498;13.446;2023-04-03T14:30:19;6.20;78.80
37518;DHT22;23366;52.498;13.446;2023-04-03T14:32:46;6.10;79.90
37518;DHT22;23366;52.498;13.446;2023-04-03T14:35:13;6.20;80.00
37518;DHT22;23366;52.498;13.446;2023-04-03T14:37:39;6.50;79.90
37518;DHT22;23366;52.498;13.446;2023-04-03T14:40:08;6.70;81.20
37518;DHT22;23366;52.498;13.446;2023-04-03T14:42:36;6.80;80.50
37518;DHT22;23366;52.498;13.446;2023-04-03T14:45:05;7.00;80.20
37518;DHT22;23366;52.498;13.446;2023-04-03T14:47:32;7.00;79.40
37518;DHT22;23366;52.498;13.446;2023-04-03T14:50:00;7.10;78.80
37518;DHT22;23366;52.498;13.446;2023-04-03T14:52:32;7.00;79.50
37518;DHT22;23366;52.498;13.446;2023-04-03T14:54:59;6.90;79.90
37518;DHT22;23366;52.498;13.446;2023-04-03T14:57:27;6.80;80.50
37518;DHT22;23366;52.498;13.446;2023-04-03T14:59:53;6.70;80.30
37518;DHT22;23366;52.498;13.446;2023-04-03T15:02:28;6.70;82.20
37518;DHT22;23366;52.498;13.446;2023-04-03T15:04:55;6.60;81.80
37518;DHT22;23366;52.498;13.446;2023-04-03T15:07:22;6.50;82.40
37518;DHT22;23366;52.498;13.446;2023-04-03T15:09:49;6.40;83.70
37518;DHT22;23366;52.498;13.446;2023-04-03T15:12:15;6.30;84.50
37518;DHT22;23366;52.498;13.446;2023-04-03T15:14:43;6.20;84.30
37518;DHT22;23366;52.498;13.446;2023-04-03T15:17:16;6.00;84.80
37518;DHT22;23366;52.498;13.446;2023-04-03T15:19:42;6.00;85.70
37518;DHT22;23366;52.498;13.446;2023-04-03T15:22:16;5.90;86.20
37518;DHT22;23366;52.498;13.446;2023-04-03T15:24:43;5.80;86.80
37518;DHT22;23366;52.498;13.446;2023-04-03T15:27:10;5.70;87.50
37518;DHT22;23366;52.498;13.446;2023-04-03T15:29:37;5.70;88.50
37518;DHT22;23366;52.498;13.446;2023-04-03T15:32:02;5.70;88.50
37518;DHT22;23366;52.498;13.446;2023-04-03T15:34:28;5.80;89.50
37518;DHT22;23366;52.498;13.446;2023-04-03T15:36:54;5.90;88.60
37518;DHT22;23366;52.498;13.446;2023-04-03T15:39:20;5.70;89.00
37518;DHT22;23366;52.498;13.446;2023-04-03T15:41:46;5.80;90.10
37518;DHT22;23366;52.498;13.446;2023-04-03T15:44:12;5.80;90.20
37518;DHT22;23366;52.498;13.446;2023-04-03T15:46:38;5.60;90.20
37518;DHT22;23366;52.498;13.446;2023-04-03T15:49:05;5.60;89.80
37518;DHT22;23366;52.498;13.446;2023-04-03T15:51:31;5.50;90.20
37518;DHT22;23366;52.498;13.446;2023-04-03T15:53:57;5.50;90.30
37518;DHT22;23366;52.498;13.446;2023-04-03T15:56:22;5.60;90.10
37518;DHT22;23366;52.498;13.446;2023-04-03T15:58:48;5.50;90.50
37518;DHT22;23366;52.498;13.446;2023-04-03T16:01:14;5.40;90.40
37518;DHT22;23366;52.498;13.446;2023-04-03T16:03:41;5.40;90.40
37518;DHT22;23366;52.498;13.446;2023-04-03T16:06:11;5.40;91.10
37518;DHT22;23366;52.498;13.446;2023-04-03T16:08:37;5.40;90.80
37518;DHT22;23366;52.498;13.446;2023-04-03T16:11:03;5.20;90.50
37518;DHT22;23366;52.498;13.446;2023-04-03T16:13:28;5.20;90.70
37518;DHT22;23366;52.498;13.446;2023-04-03T16:15:54;5.20;90.80
37518;DHT22;23366;52.498;13.446;2023-04-03T16:18:20;5.20;91.40
37518;DHT22;23366;52.498;13.446;2023-04-03T16:20:46;5.40;91.30
37518;DHT22;23366;52.498;13.446;2023-04-03T16:23:12;5.40;91.50
37518;DHT22;23366;52.498;13.446;2023-04-03T16:25:38;5.60;90.60
37518;DHT22;23366;52.498;13.446;2023-04-03T16:28:03;5.70;90.30
37518;DHT22;23366;52.498;13.446;2023-04-03T16:30:29;5.70;90.10
37518;DHT22;23366;52.498;13.446;2023-04-03T16:32:56;5.70;90.50
37518;DHT22;23366;52.498;13.446;2023-04-03T16:35:22;5.70;90.40
37518;DHT22;23366;52.498;13.446;2023-04-03T16:37:48;5.70;90.90
37518;DHT22;23366;52.498;13.446;2023-04-03T16:40:13;5.80;90.60
37518;DHT22;23366;52.498;13.446;2023-04-03T16:42:40;5.80;90.20
37518;DHT22;23366;52.498;13.446;2023-04-03T16:45:06;5.80;90.60
37518;DHT22;23366;52.498;13.446;2023-04-03T16:47:32;5.70;90.90
37518;DHT22;23366;52.498;13.446;2023-04-03T16:49:58;5.60;91.00
37518;DHT22;23366;52.498;13.446;2023-04-03T16:52:23;5.50;91.10
37518;DHT22;23366;52.498;13.446;2023-04-03T16:54:49;5.30;91.30
37518;DHT22;23366;52.498;13.446;2023-04-03T16:57:16;5.30;92.30
37518;DHT22;23366;52.498;13.446;2023-04-03T16:59:42;5.30;92.10
37518;DHT22;23366;52.498;13.446;2023-04-03T17:02:08;5.30;92.20
37518;DHT22;23366;52.498;13.446;2023-04-03T17:04:33;5.10;92.30
37518;DHT22;23366;52.498;13.446;2023-04-03T17:07:00;5.10;92.60
37518;DHT22;23366;52.498;13.446;2023-04-03T17:09:30;5.00;92.50
37518;DHT22;23366;52.498;13.446;2023-04-03T17:11:56;5.00;92.60
37518;DHT22;23366;52.498;13.446;2023-04-03T17:14:21;5.00;93.20
37518;DHT22;23366;52.498;13.446;2023-04-03T17:16:47;5.10;93.20
37518;DHT22;23366;52.498;13.446;2023-04-03T17:19:12;5.10;92.80
37518;DHT22;23366;52.498;13.446;2023-04-03T17:21:38;5.00;93.30
37518;DHT22;23366;52.498;13.446;2023-04-03T17:24:05;5.00;94.00
37518;DHT22;23366;52.498;13.446;2023-04-03T17:26:34;5.10;94.20